createdAt,value
2019-03-22T00:00:36.631Z,28.63
2019-03-22T00:03:01.126Z,26.47
2019-03-22T00:05:25.615Z,27.60
2019-03-22T00:07:50.102Z,28.03
2019-03-22T00:10:14.521Z,27.07
2019-03-22T00:12:38.930Z,29.03
2019-03-22T00:15:04.841Z,27.57
2019-03-22T00:17:29.332Z,29.90
2019-03-22T00:19:53.771Z,26.27
2019-03-22T00:22:18.196Z,29.70
2019-03-22T00:24:42.619Z,32.63
2019-03-22T00:27:15.989Z,26.77
2019-03-22T00:29:33.183Z,30.70
2019-03-22T00:31:57.625Z,29.63
2019-03-22T00:34:22.133Z,30.77
2019-03-22T00:36:46.619Z,28.13
2019-03-22T00:39:11.056Z,28.60
2019-03-22T00:41:35.478Z,31.73
2019-03-22T00:43:59.903Z,28.00
2019-03-22T00:46:24.452Z,28.80
2019-03-22T00:48:48.861Z,27.53
2019-03-22T00:51:13.301Z,32.17
2019-03-22T00:53:37.716Z,30.80
2019-03-22T00:56:02.144Z,31.67
2019-03-22T00:58:26.557Z,32.33
2019-03-22T01:00:52.417Z,32.00
2019-03-22T01:03:17.129Z,28.57
2019-03-22T01:05:41.795Z,27.07
2019-03-22T01:08:06.286Z,26.57
2019-03-22T01:10:30.724Z,28.47
2019-03-22T01:12:55.217Z,29.80
2019-03-22T01:15:33.868Z,30.43
2019-03-22T01:17:58.280Z,33.17
2019-03-22T01:20:22.790Z,36.60
2019-03-22T01:22:47.206Z,33.23
2019-03-22T01:25:11.987Z,35.50
2019-03-22T01:27:40.594Z,36.10
2019-03-22T01:30:02.680Z,33.70
2019-03-22T01:32:27.101Z,36.13
2019-03-22T01:34:51.537Z,34.37
2019-03-22T01:37:16.026Z,37.30
2019-03-22T01:39:40.454Z,33.50
2019-03-22T01:42:04.945Z,33.43
2019-03-22T01:44:29.362Z,34.03
2019-03-22T01:46:53.799Z,37.13
2019-03-22T01:49:18.208Z,29.40
2019-03-22T01:51:42.657Z,33.80
2019-03-22T01:54:07.134Z,30.43
2019-03-22T01:56:31.583Z,28.97
2019-03-22T01:58:56.148Z,26.47
2019-03-22T02:01:20.569Z,25.37
2019-03-22T02:03:44.994Z,27.30
2019-03-22T02:06:09.566Z,30.27
2019-03-22T02:08:34.057Z,30.53
2019-03-22T02:10:58.478Z,30.97
2019-03-22T02:13:22.895Z,30.47
2019-03-22T02:15:47.316Z,32.70
2019-03-22T02:18:11.732Z,30.37
2019-03-22T02:20:36.181Z,31.50
2019-03-22T02:23:00.663Z,35.13
2019-03-22T02:25:25.206Z,27.93
2019-03-22T02:27:49.688Z,32.10
2019-03-22T02:30:15.670Z,32.47
2019-03-22T02:32:40.132Z,30.03
2019-03-22T02:35:06.553Z,32.40
2019-03-22T02:37:30.922Z,32.57
2019-03-22T02:39:55.391Z,33.30
2019-03-22T02:42:19.778Z,31.37
2019-03-22T02:44:44.194Z,31.27
2019-03-22T02:47:08.778Z,30.90
2019-03-22T02:49:33.204Z,32.30
2019-03-22T02:51:57.636Z,34.73
2019-03-22T02:54:22.081Z,30.23
2019-03-22T02:56:46.577Z,35.00
2019-03-22T02:59:11.001Z,32.37
2019-03-22T03:01:35.445Z,33.83
2019-03-22T03:03:59.847Z,31.80
2019-03-22T03:06:24.361Z,35.20
2019-03-22T03:08:48.763Z,33.70
2019-03-22T03:11:13.349Z,33.20
2019-03-22T03:13:42.620Z,34.90
2019-03-22T03:16:07.984Z,36.27
2019-03-22T03:18:32.401Z,37.93
2019-03-22T03:20:57.225Z,34.93
2019-03-22T03:23:21.622Z,35.27
2019-03-22T03:25:46.092Z,36.50
2019-03-22T03:28:10.480Z,37.70
2019-03-22T03:30:34.994Z,35.20
2019-03-22T03:32:59.478Z,37.30
2019-03-22T03:35:24.045Z,37.70
2019-03-22T03:37:48.457Z,39.10
2019-03-22T03:40:14.305Z,40.00
2019-03-22T03:42:38.876Z,39.47
2019-03-22T03:45:03.948Z,44.47
2019-03-22T03:47:28.400Z,38.37
2019-03-22T03:49:52.893Z,49.47
2019-03-22T03:52:17.342Z,129.90
2019-03-22T03:54:41.850Z,95.97
2019-03-22T03:57:06.386Z,55.90
2019-03-22T03:59:30.817Z,56.20
2019-03-22T04:01:55.320Z,59.10
2019-03-22T04:04:19.799Z,56.20
2019-03-22T04:06:44.229Z,57.43
2019-03-22T04:09:08.715Z,87.77
2019-03-22T04:11:33.150Z,55.57
2019-03-22T04:13:57.608Z,46.87
2019-03-22T04:16:22.055Z,46.63
2019-03-22T04:18:46.460Z,46.17
2019-03-22T04:21:10.899Z,44.23
2019-03-22T04:23:35.321Z,44.93
2019-03-22T04:26:00.339Z,40.13
2019-03-22T04:28:24.745Z,39.97
2019-03-22T04:30:49.157Z,42.67
2019-03-22T04:33:13.580Z,41.50
2019-03-22T04:35:38.005Z,40.30
2019-03-22T04:38:02.434Z,41.93
2019-03-22T04:40:28.480Z,39.00
2019-03-22T04:42:53.346Z,45.50
2019-03-22T04:45:17.895Z,48.23
2019-03-22T04:47:45.886Z,44.33
2019-03-22T04:50:09.705Z,42.33
2019-03-22T04:52:34.299Z,42.40
2019-03-22T04:55:00.850Z,40.80
2019-03-22T04:57:27.121Z,36.23
2019-03-22T04:59:51.677Z,40.10
2019-03-22T05:02:17.536Z,37.23
2019-03-22T05:04:44.799Z,37.40
2019-03-22T05:07:09.545Z,32.83
2019-03-22T05:09:35.590Z,33.33
2019-03-22T05:12:02.712Z,38.10
2019-03-22T05:14:29.067Z,34.37
2019-03-22T05:16:55.312Z,38.43
2019-03-22T05:19:22.369Z,34.87
2019-03-22T05:21:48.633Z,33.13
2019-03-22T05:24:15.182Z,32.67
2019-03-22T05:26:40.689Z,35.27
2019-03-22T05:29:06.666Z,34.93
2019-03-22T05:31:34.129Z,45.77
2019-03-22T05:33:58.627Z,36.47
2019-03-22T05:36:23.396Z,34.27
2019-03-22T05:38:47.893Z,31.03
2019-03-22T05:41:13.789Z,24.70
2019-03-22T05:43:38.317Z,23.67
2019-03-22T05:46:02.731Z,25.67
2019-03-22T05:48:27.154Z,28.17
2019-03-22T05:50:51.552Z,29.43
2019-03-22T05:53:15.982Z,32.80
2019-03-22T05:55:40.392Z,33.30
2019-03-22T05:58:04.899Z,35.37
2019-03-22T06:00:29.315Z,33.53
2019-03-22T06:02:53.742Z,34.50
2019-03-22T06:05:18.138Z,36.27
2019-03-22T06:07:42.575Z,36.07
2019-03-22T06:10:07.923Z,36.63
2019-03-22T06:12:32.370Z,36.93
2019-03-22T06:14:56.787Z,33.40
2019-03-22T06:17:21.211Z,35.23
2019-03-22T06:19:45.626Z,37.13
2019-03-22T06:22:10.049Z,37.10
2019-03-22T06:24:34.566Z,36.53
2019-03-22T06:26:59.035Z,37.30
2019-03-22T06:29:23.471Z,40.03
2019-03-22T06:31:47.887Z,40.17
2019-03-22T06:34:12.328Z,43.60
2019-03-22T06:36:36.804Z,43.70
2019-03-22T06:39:01.246Z,48.37
2019-03-22T06:41:25.665Z,44.63
2019-03-22T06:43:50.092Z,49.20
2019-03-22T06:46:14.512Z,49.40
2019-03-22T06:48:38.948Z,50.70
2019-03-22T06:51:03.430Z,47.23
2019-03-22T06:53:27.862Z,47.53
2019-03-22T06:55:52.285Z,43.80
2019-03-22T06:58:16.708Z,46.73
2019-03-22T07:00:41.193Z,43.90
2019-03-22T07:03:05.700Z,47.90
2019-03-22T07:05:30.480Z,55.50
2019-03-22T07:07:55.388Z,55.87
2019-03-22T07:10:19.801Z,56.33
2019-03-22T07:12:44.287Z,50.53
2019-03-22T07:15:08.870Z,65.20
2019-03-22T07:17:33.282Z,61.63
2019-03-22T07:19:57.808Z,65.57
2019-03-22T07:22:22.226Z,64.73
2019-03-22T07:24:46.661Z,70.80
2019-03-22T07:27:11.146Z,66.23
2019-03-22T07:29:35.580Z,71.53
2019-03-22T07:31:59.984Z,62.87
2019-03-22T07:34:24.421Z,69.17
2019-03-22T07:36:48.857Z,67.40
2019-03-22T07:39:13.260Z,63.13
2019-03-22T07:41:37.810Z,68.73
2019-03-22T07:44:02.239Z,74.20
2019-03-22T07:46:26.667Z,70.60
2019-03-22T07:48:51.123Z,66.13
2019-03-22T07:51:15.531Z,72.70
2019-03-22T07:53:40.263Z,63.43
2019-03-22T07:56:04.997Z,66.47
2019-03-22T07:58:29.409Z,65.77
2019-03-22T08:00:53.834Z,66.43
2019-03-22T08:03:18.252Z,63.23
2019-03-22T08:05:50.859Z,70.97
2019-03-22T08:08:08.881Z,67.43
2019-03-22T08:10:33.326Z,74.40
2019-03-22T08:12:57.731Z,73.97
2019-03-22T08:15:32.094Z,74.10
2019-03-22T08:17:57.271Z,66.33
2019-03-22T08:20:21.872Z,72.53
2019-03-22T08:22:46.463Z,65.67
2019-03-22T08:25:10.866Z,64.47
2019-03-22T08:27:35.287Z,65.17
2019-03-22T08:29:59.729Z,67.97
2019-03-22T08:32:24.149Z,63.30
2019-03-22T08:34:48.590Z,62.37
2019-03-22T08:37:13.001Z,65.77
2019-03-22T08:39:37.486Z,66.17
2019-03-22T08:42:01.980Z,67.87
2019-03-22T08:44:26.530Z,64.63
2019-03-22T08:46:51.003Z,64.53
2019-03-22T08:49:15.483Z,66.90
2019-03-22T08:51:40.011Z,63.63
2019-03-22T08:54:04.517Z,60.90
2019-03-22T08:56:29.018Z,67.10
2019-03-22T08:58:53.432Z,64.43
2019-03-22T09:01:17.975Z,68.90
2019-03-22T09:03:42.363Z,67.87
2019-03-22T09:06:07.973Z,63.37
2019-03-22T09:08:32.501Z,61.10
2019-03-22T09:10:56.980Z,56.80
2019-03-22T09:13:21.501Z,61.30
2019-03-22T09:15:46.039Z,60.97
2019-03-22T09:18:10.500Z,62.73
2019-03-22T09:20:34.891Z,64.83
2019-03-22T09:22:59.436Z,64.60
2019-03-22T09:25:23.927Z,61.77
2019-03-22T09:27:48.343Z,63.10
2019-03-22T09:30:14.650Z,62.67
2019-03-22T09:32:39.141Z,62.07
2019-03-22T09:35:04.037Z,62.03
2019-03-22T09:37:28.545Z,67.70
2019-03-22T09:39:53.039Z,73.83
2019-03-22T09:42:17.448Z,74.73
2019-03-22T09:44:44.242Z,67.07
2019-03-22T09:47:08.062Z,72.77
2019-03-22T09:49:32.481Z,74.53
2019-03-22T09:51:56.906Z,71.73
2019-03-22T09:54:21.452Z,64.83
2019-03-22T09:56:47.414Z,62.80
2019-03-22T09:59:12.136Z,67.40
2019-03-22T10:01:36.641Z,64.33
2019-03-22T10:04:01.082Z,60.50
2019-03-22T10:06:25.490Z,65.40
2019-03-22T10:08:49.940Z,58.67
2019-03-22T10:11:14.367Z,58.10
2019-03-22T10:13:38.829Z,59.33
2019-03-22T10:16:03.409Z,60.90
2019-03-22T10:18:27.897Z,63.93
2019-03-22T10:20:52.351Z,61.83
2019-03-22T10:23:16.808Z,60.30
2019-03-22T10:25:41.558Z,58.73
2019-03-22T10:28:06.156Z,57.17
2019-03-22T10:30:30.642Z,60.47
2019-03-22T10:32:55.102Z,58.07
2019-03-22T10:35:25.903Z,58.43
2019-03-22T10:37:45.652Z,58.67
2019-03-22T10:40:10.197Z,60.87
2019-03-22T10:42:34.629Z,59.27
2019-03-22T10:44:59.110Z,59.50
2019-03-22T10:47:23.552Z,54.70
2019-03-22T10:49:47.955Z,56.17
2019-03-22T10:52:12.398Z,55.87
2019-03-22T10:54:36.811Z,53.03
2019-03-22T10:57:01.315Z,56.80
2019-03-22T10:59:28.721Z,53.83
2019-03-22T11:02:03.184Z,51.63
2019-03-22T11:04:19.386Z,53.63
2019-03-22T11:06:43.802Z,53.23
2019-03-22T11:09:08.885Z,51.23
2019-03-22T11:11:33.296Z,56.67
2019-03-22T11:13:57.801Z,51.70
2019-03-22T11:16:22.237Z,54.13
2019-03-22T11:18:46.666Z,48.00
2019-03-22T11:21:11.093Z,53.97
2019-03-22T11:23:35.598Z,52.53
2019-03-22T11:26:03.991Z,49.73
2019-03-22T11:28:26.156Z,51.33
2019-03-22T11:30:50.573Z,46.47
2019-03-22T11:33:15.083Z,47.63
2019-03-22T11:35:39.561Z,49.30
2019-03-22T11:38:04.139Z,49.83
2019-03-22T11:40:28.556Z,48.63
2019-03-22T11:42:52.962Z,47.07
2019-03-22T11:45:20.130Z,48.67
2019-03-22T11:47:44.544Z,45.50
2019-03-22T11:50:10.427Z,47.40
2019-03-22T11:52:34.973Z,43.93
2019-03-22T11:54:59.440Z,46.77
2019-03-22T11:57:23.940Z,45.17
2019-03-22T11:59:48.378Z,46.90
2019-03-22T12:02:21.975Z,47.07
2019-03-22T12:04:38.927Z,47.13
2019-03-22T12:07:03.409Z,44.63
2019-03-22T12:09:27.928Z,46.23
2019-03-22T12:11:52.518Z,45.83
2019-03-22T12:14:16.969Z,46.57
2019-03-22T12:16:41.457Z,46.50
2019-03-22T12:19:06.046Z,44.00
2019-03-22T12:21:30.438Z,44.03
2019-03-22T12:23:54.885Z,41.90
2019-03-22T12:26:19.442Z,41.53
2019-03-22T12:28:43.854Z,46.47
2019-03-22T12:31:08.365Z,42.53
2019-03-22T12:33:32.766Z,41.17
2019-03-22T12:35:57.281Z,39.97
2019-03-22T12:38:21.690Z,40.10
2019-03-22T12:40:46.139Z,39.67
2019-03-22T12:43:10.554Z,39.95
2019-03-22T12:45:35.329Z,40.12
2019-03-22T12:47:59.923Z,39.15
2019-03-22T12:50:25.101Z,40.90
2019-03-22T12:52:49.519Z,39.27
2019-03-22T12:55:14.309Z,37.73
2019-03-22T12:57:38.867Z,36.30
2019-03-22T13:00:04.891Z,38.25
2019-03-22T13:02:29.370Z,36.35
2019-03-22T13:04:53.826Z,40.60
2019-03-22T13:07:18.236Z,36.40
2019-03-22T13:09:42.726Z,35.85
2019-03-22T13:12:07.225Z,36.20
2019-03-22T13:14:31.853Z,36.03
2019-03-22T13:16:56.297Z,35.05
2019-03-22T13:19:20.719Z,34.58
2019-03-22T13:21:45.160Z,35.52
2019-03-22T13:24:09.593Z,36.15
2019-03-22T13:26:34.036Z,33.92
2019-03-22T13:28:58.452Z,32.98
2019-03-22T13:31:22.895Z,36.35
2019-03-22T13:33:47.310Z,32.90
2019-03-22T13:36:11.941Z,35.08
2019-03-22T13:38:36.367Z,34.25
2019-03-22T13:41:00.785Z,32.38
2019-03-22T13:43:25.208Z,32.20
2019-03-22T13:45:49.647Z,32.90
2019-03-22T13:48:14.066Z,30.77
2019-03-22T13:50:38.572Z,30.68
2019-03-22T13:53:03.061Z,30.30
2019-03-22T13:55:27.679Z,31.93
2019-03-22T13:57:52.214Z,33.15
2019-03-22T14:00:18.961Z,33.78
2019-03-22T14:02:43.442Z,32.08
2019-03-22T14:05:08.805Z,30.77
2019-03-22T14:07:33.246Z,30.82
2019-03-22T14:10:00.842Z,33.30
2019-03-22T14:12:25.269Z,31.42
2019-03-22T14:14:49.679Z,33.60
2019-03-22T14:17:14.109Z,32.08
2019-03-22T14:19:38.525Z,32.13
2019-03-22T14:22:02.970Z,32.25
2019-03-22T14:24:27.450Z,32.45
2019-03-22T14:26:51.886Z,31.73
2019-03-22T14:29:16.313Z,32.60
2019-03-22T14:31:40.756Z,33.90
2019-03-22T14:34:05.248Z,32.65
2019-03-22T14:36:29.699Z,31.30
2019-03-22T14:38:54.188Z,31.50
2019-03-22T14:41:18.657Z,32.23
2019-03-22T14:43:43.084Z,32.30
2019-03-22T14:46:07.611Z,32.98
2019-03-22T14:48:32.039Z,32.78
2019-03-22T14:50:56.487Z,34.10
2019-03-22T14:53:20.900Z,32.42
2019-03-22T14:55:45.349Z,32.67
2019-03-22T14:58:09.838Z,33.00
2019-03-22T15:00:34.271Z,32.40
2019-03-22T15:02:58.764Z,33.40
2019-03-22T15:05:23.197Z,30.68
2019-03-22T15:07:47.710Z,32.38
2019-03-22T15:10:13.531Z,33.90
2019-03-22T15:12:38.110Z,34.45
2019-03-22T15:15:20.413Z,30.72
2019-03-22T15:18:04.800Z,34.48
2019-03-22T15:20:36.991Z,34.58
2019-03-22T15:23:03.082Z,32.98
2019-03-22T15:25:44.253Z,32.85
2019-03-22T15:28:26.477Z,36.20
2019-03-22T15:30:52.538Z,32.45
2019-03-22T15:33:34.105Z,34.63
2019-03-22T15:36:08.456Z,36.70
2019-03-22T15:38:43.533Z,33.40
2019-03-22T15:41:08.073Z,36.73
2019-03-22T15:43:32.516Z,34.18
2019-03-22T15:45:57.006Z,33.53
2019-03-22T15:48:21.472Z,32.93
2019-03-22T15:50:45.892Z,33.02
2019-03-22T15:53:10.337Z,35.95
2019-03-22T15:55:34.820Z,32.33
2019-03-22T15:57:59.251Z,30.23
2019-03-22T16:00:23.668Z,31.95
2019-03-22T16:02:48.102Z,28.90
2019-03-22T16:05:13.252Z,28.52
2019-03-22T16:07:37.841Z,30.70
2019-03-22T16:10:02.310Z,26.97
2019-03-22T16:12:26.765Z,28.70
2019-03-22T16:14:51.287Z,30.72
2019-03-22T16:17:15.776Z,29.20
2019-03-22T16:19:40.285Z,30.57
2019-03-22T16:22:04.768Z,33.13
2019-03-22T16:24:29.222Z,30.97
2019-03-22T16:26:53.704Z,30.43
2019-03-22T16:29:18.207Z,35.15
2019-03-22T16:31:42.692Z,36.83
2019-03-22T16:34:19.084Z,33.08
2019-03-22T16:36:43.495Z,34.98
2019-03-22T16:39:17.760Z,34.98
2019-03-22T16:41:43.144Z,36.25
2019-03-22T16:44:07.735Z,35.45
2019-03-22T16:46:32.209Z,35.20
2019-03-22T16:48:56.630Z,39.67
2019-03-22T16:51:21.046Z,38.20
2019-03-22T16:53:45.541Z,39.20
2019-03-22T16:56:09.988Z,38.43
2019-03-22T16:58:34.359Z,38.57
2019-03-22T17:00:58.857Z,43.27
2019-03-22T17:03:23.260Z,37.77
2019-03-22T17:05:47.762Z,38.67
2019-03-22T17:08:12.251Z,44.63
2019-03-22T17:10:37.412Z,38.70
2019-03-22T17:13:01.886Z,41.30
2019-03-22T17:15:26.394Z,42.33
2019-03-22T17:17:50.805Z,43.87
2019-03-22T17:20:15.404Z,42.57
2019-03-22T17:22:39.885Z,40.63
2019-03-22T17:25:06.169Z,44.40
2019-03-22T17:27:30.673Z,42.03
2019-03-22T17:29:55.099Z,45.87
2019-03-22T17:32:19.506Z,43.30
2019-03-22T17:34:43.935Z,45.80
2019-03-22T17:37:08.348Z,47.30
2019-03-22T17:39:32.780Z,47.93
2019-03-22T17:41:57.193Z,43.27
2019-03-22T17:44:21.602Z,46.03
2019-03-22T17:46:46.105Z,45.43
2019-03-22T17:49:10.516Z,45.73
2019-03-22T17:51:34.941Z,46.13
2019-03-22T17:53:59.352Z,46.23
2019-03-22T17:56:23.900Z,42.97
2019-03-22T17:58:48.301Z,47.27
2019-03-22T18:01:12.743Z,46.03
2019-03-22T18:03:37.166Z,44.77
2019-03-22T18:06:02.851Z,44.97
2019-03-22T18:08:27.206Z,43.90
2019-03-22T18:10:51.801Z,47.60
2019-03-22T18:13:16.306Z,47.23
2019-03-22T18:15:40.750Z,49.27
2019-03-22T18:18:05.309Z,45.27
2019-03-22T18:20:29.838Z,50.97
2019-03-22T18:22:54.257Z,46.73
2019-03-22T18:25:21.563Z,43.00
2019-03-22T18:27:45.990Z,48.63
2019-03-22T18:30:16.230Z,48.50
2019-03-22T18:32:40.753Z,48.87
2019-03-22T18:35:05.908Z,48.03
2019-03-22T18:37:30.347Z,47.33
2019-03-22T18:39:54.767Z,47.23
2019-03-22T18:42:20.085Z,46.43
2019-03-22T18:44:44.493Z,51.83
2019-03-22T18:47:09.007Z,48.33
2019-03-22T18:49:33.429Z,52.10
2019-03-22T18:51:57.882Z,51.07
2019-03-22T18:54:22.295Z,53.30
2019-03-22T18:56:46.834Z,49.97
2019-03-22T18:59:11.253Z,51.10
2019-03-22T19:01:35.694Z,50.23
2019-03-22T19:04:00.183Z,54.23
2019-03-22T19:06:24.603Z,55.90
2019-03-22T19:08:49.049Z,49.03
2019-03-22T19:11:13.470Z,56.43
2019-03-22T19:13:41.773Z,58.53
2019-03-22T19:16:07.940Z,54.40
2019-03-22T19:18:32.849Z,51.93
2019-03-22T19:20:57.454Z,50.60
2019-03-22T19:23:21.979Z,54.63
2019-03-22T19:25:48.015Z,57.73
2019-03-22T19:28:12.482Z,56.30
2019-03-22T19:30:36.959Z,57.53
2019-03-22T19:33:01.405Z,57.33
2019-03-22T19:35:25.832Z,59.77
2019-03-22T19:37:50.289Z,59.13
2019-03-22T19:40:16.238Z,59.77
2019-03-22T19:42:40.667Z,58.10
2019-03-22T19:45:08.224Z,61.37
2019-03-22T19:47:32.621Z,57.93
2019-03-22T19:49:57.073Z,56.90
2019-03-22T19:52:21.527Z,54.20
2019-03-22T19:54:45.985Z,50.70
2019-03-22T19:57:10.534Z,54.07
2019-03-22T19:59:34.987Z,53.83
2019-03-22T20:01:59.418Z,55.57
2019-03-22T20:04:23.859Z,53.13
2019-03-22T20:06:48.339Z,53.37
2019-03-22T20:09:12.882Z,53.37
2019-03-22T20:11:37.345Z,52.50
2019-03-22T20:14:01.853Z,54.00
2019-03-22T20:16:26.442Z,53.43
2019-03-22T20:18:50.879Z,51.07
2019-03-22T20:21:15.308Z,52.83
2019-03-22T20:23:39.755Z,54.43
2019-03-22T20:26:04.309Z,51.53
2019-03-22T20:28:28.747Z,56.07
2019-03-22T20:30:53.176Z,52.83
2019-03-22T20:33:17.735Z,53.83
2019-03-22T20:35:42.159Z,50.73
2019-03-22T20:38:06.722Z,57.47
2019-03-22T20:40:31.222Z,54.63
2019-03-22T20:42:55.642Z,54.37
2019-03-22T20:45:24.362Z,58.77
2019-03-22T20:47:46.200Z,52.23
2019-03-22T20:50:11.995Z,59.23
2019-03-22T20:52:36.505Z,52.93
2019-03-22T20:55:01.700Z,57.57
2019-03-22T20:57:26.126Z,57.33
2019-03-22T20:59:50.589Z,58.97
2019-03-22T21:02:14.997Z,57.67
2019-03-22T21:04:39.443Z,58.80
2019-03-22T21:07:03.929Z,56.40
2019-03-22T21:09:28.392Z,56.83
2019-03-22T21:11:52.806Z,55.10
2019-03-22T21:14:17.231Z,56.37
2019-03-22T21:16:41.733Z,52.83
2019-03-22T21:19:10.443Z,59.30
2019-03-22T21:21:36.495Z,56.53
2019-03-22T21:24:01.101Z,57.03
2019-03-22T21:26:25.534Z,63.03
2019-03-22T21:28:49.960Z,58.67
2019-03-22T21:31:14.475Z,60.40
2019-03-22T21:33:38.905Z,59.87
2019-03-22T21:36:03.335Z,56.23
2019-03-22T21:38:27.812Z,58.67
2019-03-22T21:40:52.257Z,58.30
2019-03-22T21:43:16.675Z,62.17
2019-03-22T21:45:41.174Z,63.60
2019-03-22T21:48:05.590Z,59.93
2019-03-22T21:50:30.122Z,61.93
2019-03-22T21:52:54.541Z,60.00
2019-03-22T21:55:19.087Z,57.90
2019-03-22T21:57:43.504Z,63.33
2019-03-22T22:00:12.344Z,58.57
2019-03-22T22:02:36.821Z,63.33
2019-03-22T22:05:01.258Z,62.00
2019-03-22T22:07:25.678Z,57.83
2019-03-22T22:09:50.165Z,61.50
2019-03-22T22:12:14.675Z,60.93
2019-03-22T22:14:41.000Z,63.30
2019-03-22T22:17:05.462Z,59.50
2019-03-22T22:19:29.867Z,61.83
2019-03-22T22:21:54.310Z,61.60
2019-03-22T22:24:18.734Z,61.13
2019-03-22T22:26:43.165Z,61.03
2019-03-22T22:29:07.568Z,70.70
2019-03-22T22:31:32.191Z,66.57
2019-03-22T22:33:56.706Z,65.77
2019-03-22T22:36:21.221Z,66.37
2019-03-22T22:38:45.634Z,64.27
2019-03-22T22:41:10.070Z,66.50
2019-03-22T22:43:34.558Z,63.07
2019-03-22T22:45:59.060Z,67.47
2019-03-22T22:48:23.473Z,64.87
2019-03-22T22:50:47.907Z,66.13
2019-03-22T22:53:12.447Z,65.07
2019-03-22T22:55:37.827Z,62.73
2019-03-22T22:58:02.296Z,65.17
2019-03-22T23:00:28.419Z,72.67
2019-03-22T23:02:52.859Z,66.60
2019-03-22T23:05:17.357Z,65.23
2019-03-22T23:07:42.008Z,67.53
2019-03-22T23:10:06.559Z,70.27
2019-03-22T23:12:31.008Z,65.00
2019-03-22T23:14:55.421Z,65.30
2019-03-22T23:17:19.953Z,64.23
2019-03-22T23:19:44.373Z,65.73
2019-03-22T23:22:08.791Z,64.40
2019-03-22T23:24:33.213Z,69.03
2019-03-22T23:26:57.659Z,66.97
2019-03-22T23:29:22.076Z,63.37
2019-03-22T23:31:46.557Z,63.50
2019-03-22T23:34:10.974Z,63.23
2019-03-22T23:36:35.462Z,59.60
2019-03-22T23:38:59.988Z,67.13
2019-03-22T23:41:24.422Z,64.87
2019-03-22T23:43:48.859Z,63.23
2019-03-22T23:46:13.347Z,59.20
2019-03-22T23:48:37.805Z,61.40
2019-03-22T23:51:02.218Z,68.13
2019-03-22T23:53:26.646Z,62.40
2019-03-22T23:55:51.067Z,76.60
2019-03-22T23:58:15.561Z,76.57
